sensor_id;sensor_type;location;lat;lon;timestamp;P1;durP1;ratioP1;P2;durP2;ratioP2
8885;SDS011;4479;51.162;13.906;2023-03-14T00:07:25;0.77;;;0.70;;
8885;SDS011;4479;51.162;13.906;2023-03-14T00:17:33;0.80;;;0.70;;
8885;SDS011;4479;51.162;13.906;2023-03-14T00:27:36;0.97;;;0.90;;
8885;SDS011;4479;51.162;13.906;2023-03-14T00:37:40;1.07;;;0.97;;
8885;SDS011;4479;51.162;13.906;2023-03-14T00:47:43;1.50;;;1.23;;
8885;SDS011;4479;51.162;13.906;2023-03-14T00:57:47;1.30;;;1.13;;
8885;SDS011;4479;51.162;13.906;2023-03-14T01:07:49;1.27;;;1.17;;
8885;SDS011;4479;51.162;13.906;2023-03-14T01:17:53;1.80;;;1.47;;
8885;SDS011;4479;51.162;13.906;2023-03-14T01:27:57;2.20;;;2.00;;
8885;SDS011;4479;51.162;13.906;2023-03-14T01:38:03;2.77;;;2.47;;
8885;SDS011;4479;51.162;13.906;2023-03-14T01:48:06;2.67;;;2.47;;
8885;SDS011;4479;51.162;13.906;2023-03-14T01:58:09;3.27;;;2.23;;
8885;SDS011;4479;51.162;13.906;2023-03-14T02:08:13;2.10;;;2.00;;
8885;SDS011;4479;51.162;13.906;2023-03-14T02:18:24;3.27;;;2.20;;
8885;SDS011;4479;51.162;13.906;2023-03-14T02:28:42;2.00;;;1.90;;
8885;SDS011;4479;51.162;13.906;2023-03-14T02:48:59;1.43;;;1.20;;
8885;SDS011;4479;51.162;13.906;2023-03-14T02:59:05;1.07;;;0.93;;
8885;SDS011;4479;51.162;13.906;2023-03-14T03:09:24;0.87;;;0.73;;
8885;SDS011;4479;51.162;13.906;2023-03-14T03:19:26;1.00;;;0.60;;
8885;SDS011;4479;51.162;13.906;2023-03-14T03:29:30;0.40;;;0.40;;
8885;SDS011;4479;51.162;13.906;2023-03-14T03:39:33;0.40;;;0.40;;
8885;SDS011;4479;51.162;13.906;2023-03-14T03:49:37;0.90;;;0.50;;
8885;SDS011;4479;51.162;13.906;2023-03-14T03:59:43;0.60;;;0.40;;
8885;SDS011;4479;51.162;13.906;2023-03-14T04:09:47;0.50;;;0.50;;
8885;SDS011;4479;51.162;13.906;2023-03-14T04:20:11;1.00;;;0.40;;
8885;SDS011;4479;51.162;13.906;2023-03-14T04:30:16;2.10;;;0.60;;
8885;SDS011;4479;51.162;13.906;2023-03-14T04:40:26;0.70;;;0.50;;
8885;SDS011;4479;51.162;13.906;2023-03-14T04:50:35;0.73;;;0.40;;
8885;SDS011;4479;51.162;13.906;2023-03-14T05:00:38;1.33;;;0.60;;
8885;SDS011;4479;51.162;13.906;2023-03-14T05:10:52;0.57;;;0.50;;
8885;SDS011;4479;51.162;13.906;2023-03-14T05:21:20;0.83;;;0.50;;
8885;SDS011;4479;51.162;13.906;2023-03-14T05:31:42;3.87;;;0.90;;
8885;SDS011;4479;51.162;13.906;2023-03-14T05:42:05;1.00;;;0.60;;
8885;SDS011;4479;51.162;13.906;2023-03-14T05:52:34;1.13;;;0.60;;
8885;SDS011;4479;51.162;13.906;2023-03-14T06:02:50;1.27;;;0.63;;
8885;SDS011;4479;51.162;13.906;2023-03-14T06:12:59;2.07;;;0.70;;
8885;SDS011;4479;51.162;13.906;2023-03-14T06:23:01;4.10;;;1.30;;
8885;SDS011;4479;51.162;13.906;2023-03-14T06:33:06;1.00;;;0.70;;
8885;SDS011;4479;51.162;13.906;2023-03-14T06:43:09;1.47;;;0.90;;
8885;SDS011;4479;51.162;13.906;2023-03-14T06:53:19;3.17;;;0.80;;
8885;SDS011;4479;51.162;13.906;2023-03-14T07:03:22;2.13;;;0.60;;
8885;SDS011;4479;51.162;13.906;2023-03-14T07:13:28;2.63;;;0.67;;
8885;SDS011;4479;51.162;13.906;2023-03-14T07:23:36;1.50;;;0.80;;
8885;SDS011;4479;51.162;13.906;2023-03-14T07:33:40;1.07;;;0.70;;
8885;SDS011;4479;51.162;13.906;2023-03-14T07:43:42;1.33;;;0.80;;
8885;SDS011;4479;51.162;13.906;2023-03-14T07:53:46;1.63;;;0.70;;
8885;SDS011;4479;51.162;13.906;2023-03-14T08:03:48;1.63;;;0.60;;
8885;SDS011;4479;51.162;13.906;2023-03-14T08:13:52;1.57;;;0.90;;
8885;SDS011;4479;51.162;13.906;2023-03-14T08:23:54;2.00;;;0.67;;
8885;SDS011;4479;51.162;13.906;2023-03-14T08:33:59;1.43;;;0.70;;
8885;SDS011;4479;51.162;13.906;2023-03-14T08:44:01;2.30;;;0.50;;
8885;SDS011;4479;51.162;13.906;2023-03-14T08:54:05;2.63;;;0.90;;
8885;SDS011;4479;51.162;13.906;2023-03-14T09:04:10;1.63;;;0.70;;
8885;SDS011;4479;51.162;13.906;2023-03-14T09:14:15;2.17;;;0.93;;
8885;SDS011;4479;51.162;13.906;2023-03-14T09:24:17;1.77;;;0.90;;
8885;SDS011;4479;51.162;13.906;2023-03-14T09:34:52;0.77;;;0.60;;
8885;SDS011;4479;51.162;13.906;2023-03-14T09:45:23;0.70;;;0.50;;
8885;SDS011;4479;51.162;13.906;2023-03-14T09:55:41;0.90;;;0.50;;
8885;SDS011;4479;51.162;13.906;2023-03-14T10:06:00;0.83;;;0.53;;
8885;SDS011;4479;51.162;13.906;2023-03-14T10:17:06;0.47;;;0.47;;
8885;SDS011;4479;51.162;13.906;2023-03-14T10:27:17;0.70;;;0.50;;
8885;SDS011;4479;51.162;13.906;2023-03-14T10:37:22;0.80;;;0.60;;
8885;SDS011;4479;51.162;13.906;2023-03-14T10:47:27;2.27;;;0.70;;
8885;SDS011;4479;51.162;13.906;2023-03-14T10:57:31;1.33;;;0.60;;
8885;SDS011;4479;51.162;13.906;2023-03-14T11:07:36;2.10;;;0.70;;
8885;SDS011;4479;51.162;13.906;2023-03-14T11:17:44;0.60;;;0.50;;
8885;SDS011;4479;51.162;13.906;2023-03-14T11:27:52;1.23;;;0.40;;
8885;SDS011;4479;51.162;13.906;2023-03-14T11:38:18;0.90;;;0.40;;
8885;SDS011;4479;51.162;13.906;2023-03-14T11:48:28;0.40;;;0.40;;
8885;SDS011;4479;51.162;13.906;2023-03-14T11:58:36;0.57;;;0.57;;
8885;SDS011;4479;51.162;13.906;2023-03-14T12:08:42;0.50;;;0.50;;
8885;SDS011;4479;51.162;13.906;2023-03-14T12:18:50;0.60;;;0.50;;
8885;SDS011;4479;51.162;13.906;2023-03-14T12:29:09;0.50;;;0.40;;
8885;SDS011;4479;51.162;13.906;2023-03-14T12:39:15;0.97;;;0.47;;
8885;SDS011;4479;51.162;13.906;2023-03-14T12:49:23;0.83;;;0.50;;
8885;SDS011;4479;51.162;13.906;2023-03-14T12:59:33;0.60;;;0.40;;
8885;SDS011;4479;51.162;13.906;2023-03-14T13:20:04;0.20;;;0.20;;
8885;SDS011;4479;51.162;13.906;2023-03-14T13:30:14;0.77;;;0.40;;
8885;SDS011;4479;51.162;13.906;2023-03-14T13:40:20;0.30;;;0.30;;
8885;SDS011;4479;51.162;13.906;2023-03-14T13:50:26;0.70;;;0.50;;
8885;SDS011;4479;51.162;13.906;2023-03-14T14:00:30;1.00;;;0.70;;
8885;SDS011;4479;51.162;13.906;2023-03-14T14:10:33;0.70;;;0.60;;
8885;SDS011;4479;51.162;13.906;2023-03-14T14:20:40;0.40;;;0.40;;
8885;SDS011;4479;51.162;13.906;2023-03-14T14:30:43;0.53;;;0.40;;
8885;SDS011;4479;51.162;13.906;2023-03-14T14:40:48;0.30;;;0.30;;
8885;SDS011;4479;51.162;13.906;2023-03-14T14:50:55;0.33;;;0.33;;
8885;SDS011;4479;51.162;13.906;2023-03-14T15:01:04;0.87;;;0.50;;
8885;SDS011;4479;51.162;13.906;2023-03-14T15:11:09;0.40;;;0.40;;
8885;SDS011;4479;51.162;13.906;2023-03-14T15:21:17;0.60;;;0.57;;
8885;SDS011;4479;51.162;13.906;2023-03-14T15:31:20;0.60;;;0.60;;
8885;SDS011;4479;51.162;13.906;2023-03-14T15:41:24;0.57;;;0.40;;
8885;SDS011;4479;51.162;13.906;2023-03-14T15:51:26;0.97;;;0.73;;
8885;SDS011;4479;51.162;13.906;2023-03-14T16:01:30;0.40;;;0.40;;
8885;SDS011;4479;51.162;13.906;2023-03-14T16:11:33;0.73;;;0.50;;
8885;SDS011;4479;51.162;13.906;2023-03-14T16:21:36;0.63;;;0.50;;
8885;SDS011;4479;51.162;13.906;2023-03-14T16:31:39;0.80;;;0.80;;
8885;SDS011;4479;51.162;13.906;2023-03-14T16:41:43;0.47;;;0.40;;
8885;SDS011;4479;51.162;13.906;2023-03-14T16:51:45;1.00;;;0.60;;
8885;SDS011;4479;51.162;13.906;2023-03-14T17:01:49;1.83;;;0.90;;
8885;SDS011;4479;51.162;13.906;2023-03-14T17:11:51;0.50;;;0.50;;
8885;SDS011;4479;51.162;13.906;2023-03-14T17:21:56;2.10;;;1.37;;
8885;SDS011;4479;51.162;13.906;2023-03-14T17:31:58;1.83;;;0.37;;
8885;SDS011;4479;51.162;13.906;2023-03-14T17:42:02;0.90;;;0.57;;
8885;SDS011;4479;51.162;13.906;2023-03-14T17:52:04;1.73;;;0.90;;
8885;SDS011;4479;51.162;13.906;2023-03-14T18:02:09;0.67;;;0.50;;
8885;SDS011;4479;51.162;13.906;2023-03-14T18:12:13;4.03;;;1.57;;
8885;SDS011;4479;51.162;13.906;2023-03-14T18:22:17;3.10;;;1.40;;
8885;SDS011;4479;51.162;13.906;2023-03-14T18:32:19;4.00;;;1.57;;
8885;SDS011;4479;51.162;13.906;2023-03-14T18:42:22;2.97;;;1.37;;
8885;SDS011;4479;51.162;13.906;2023-03-14T18:52:25;7.13;;;3.53;;
8885;SDS011;4479;51.162;13.906;2023-03-14T19:02:28;5.67;;;3.50;;
8885;SDS011;4479;51.162;13.906;2023-03-14T19:12:30;7.07;;;4.13;;
8885;SDS011;4479;51.162;13.906;2023-03-14T19:22:35;3.37;;;1.37;;
8885;SDS011;4479;51.162;13.906;2023-03-14T19:32:37;4.07;;;1.53;;
8885;SDS011;4479;51.162;13.906;2023-03-14T19:42:42;3.67;;;1.50;;
8885;SDS011;4479;51.162;13.906;2023-03-14T19:52:44;2.70;;;1.10;;
8885;SDS011;4479;51.162;13.906;2023-03-14T20:02:49;3.50;;;1.13;;
8885;SDS011;4479;51.162;13.906;2023-03-14T20:24:02;4.30;;;1.40;;
8885;SDS011;4479;51.162;13.906;2023-03-14T20:45:58;4.43;;;1.03;;
8885;SDS011;4479;51.162;13.906;2023-03-14T20:56:01;4.87;;;1.20;;
8885;SDS011;4479;51.162;13.906;2023-03-14T21:06:17;2.20;;;0.90;;
8885;SDS011;4479;51.162;13.906;2023-03-14T21:16:21;3.63;;;1.20;;
8885;SDS011;4479;51.162;13.906;2023-03-14T21:26:25;2.47;;;1.10;;
8885;SDS011;4479;51.162;13.906;2023-03-14T21:36:30;4.13;;;0.90;;
8885;SDS011;4479;51.162;13.906;2023-03-14T21:46:34;2.80;;;1.10;;
8885;SDS011;4479;51.162;13.906;2023-03-14T21:56:36;3.83;;;0.93;;
8885;SDS011;4479;51.162;13.906;2023-03-14T22:06:40;2.43;;;0.77;;
8885;SDS011;4479;51.162;13.906;2023-03-14T22:16:43;3.30;;;0.90;;
8885;SDS011;4479;51.162;13.906;2023-03-14T22:26:47;4.43;;;1.20;;
8885;SDS011;4479;51.162;13.906;2023-03-14T22:36:52;6.03;;;1.30;;
8885;SDS011;4479;51.162;13.906;2023-03-14T22:46:55;3.77;;;0.90;;
8885;SDS011;4479;51.162;13.906;2023-03-14T22:56:57;6.37;;;1.10;;
8885;SDS011;4479;51.162;13.906;2023-03-14T23:07:01;2.23;;;0.90;;
8885;SDS011;4479;51.162;13.906;2023-03-14T23:17:03;3.53;;;0.90;;
8885;SDS011;4479;51.162;13.906;2023-03-14T23:27:07;1.87;;;0.87;;
8885;SDS011;4479;51.162;13.906;2023-03-14T23:37:09;3.63;;;1.20;;
8885;SDS011;4479;51.162;13.906;2023-03-14T23:47:14;3.90;;;1.20;;
8885;SDS011;4479;51.162;13.906;2023-03-14T23:57:16;3.03;;;0.80;;
